Surface Data

86.7 °F / 30.4 °C
ENE at 16 MPH
73%
77.4°F / 25.2 °C
29.84" (1010 mb)
10 mile(s)
clear
2020.05.28 0420 UTC

Surface Data

Raw METARs

2020/05/28 04:20
PKWA 280420Z AUTO 07014KT 10SM CLR 30/25 A2984 RMK AO2 T03040252

Translated METAR

Kwajalein, Bucholz AAF, Kwajalein KMR ATOL Airport, Marshall Islands (PKWA) 08-43N 167-44E 2M
May 28, 2020 - 12:20 AM EDT / 2020.05.28 0420 UTC
Wind: from the ENE (070 degrees) at 16 MPH (14 KT):0
Visibility: 10 mile(s):0
Sky conditions: clear
Temperature: 86.7 F (30.4 C)
Heat index: 98.2 F (36.8 C):1
Dew Point: 77.4 F (25.2 C)
Relative Humidity: 73%
Pressure (altimeter): 29.84 in. Hg (1010 hPa)
ob: PKWA 280420Z AUTO 07014KT 10SM CLR 30/25 A2984 RMK AO2 T03040252
cycle: 4